Lincoln Hwy 8

*Note: All times are displayed in the local standard time of the station location.
**Rain - Equipment is designed to accurately record liquid precipitation; under conditions when precipitation is not in liquid form, the data displayed may not properly reflect rainfall values.

Date Max Temp
(°C)
Min Temp
(°C)
Avg Temp
(°C)
Rain (mm) Avg RH (%)
Sun, Dec 10, 2017 -1.3 -3.0 -2.1 0.0 76.1
Sat, Dec 09, 2017 2.1 -2.7 -0.3 0.0 65.5
Fri, Dec 08, 2017 -0.1 -4.3 -1.7 0.0 63.9
Thu, Dec 07, 2017 1.3 -3.3 -0.8 0.0 65.6
Wed, Dec 06, 2017 3.7 -1.2 1.3 0.0 55.1
Tue, Dec 05, 2017 11.6 0.6 7.6 11.0 72.7
Mon, Dec 04, 2017 11.1 -1.1 5.7 0.4 77.0
DateTime Avg Temp (°C) Rain (mm) RH (%)
Mon, Dec 11, 2017 02:00 -2.5 0.0 85.8
Mon, Dec 11, 2017 01:00 -2.0 0.0 81.5
Mon, Dec 11, 2017 00:00 -2.0 0.0 76.0
Sun, Dec 10, 2017 23:00 -2.5 0.0 77.8
Sun, Dec 10, 2017 22:00 -2.5 0.0 76.8
Sun, Dec 10, 2017 21:00 -2.4 0.0 75.3
Sun, Dec 10, 2017 20:00 -2.4 0.0 73.8
Sun, Dec 10, 2017 19:00 -2.3 0.0 74.5
Sun, Dec 10, 2017 18:00 -2.1 0.0 74.0
Sun, Dec 10, 2017 17:00 -1.5 0.0 67.3
Sun, Dec 10, 2017 16:00 -1.4 0.0 69.3
Sun, Dec 10, 2017 15:00 -1.3 0.0 70.3
Sun, Dec 10, 2017 14:00 -1.3 0.0 70.3
Sun, Dec 10, 2017 13:00 -1.5 0.0 73.0
Sun, Dec 10, 2017 12:00 -1.6 0.0 69.5
Sun, Dec 10, 2017 11:00 -1.9 0.0 66.8
Sun, Dec 10, 2017 10:00 -2.4 0.0 69.5
Sun, Dec 10, 2017 09:00 -2.7 0.0 70.8
Sun, Dec 10, 2017 08:00 -2.8 0.0 70.0
Sun, Dec 10, 2017 07:00 -2.6 0.0 77.5
Sun, Dec 10, 2017 06:00 -2.7 0.0 81.0
Sun, Dec 10, 2017 05:00 -2.3 0.0 85.8
Sun, Dec 10, 2017 04:00 -2.3 0.0 88.5
Sun, Dec 10, 2017 03:00 -2.3 0.0 88.5
Sun, Dec 10, 2017 02:00 -2.4 0.0 89.8
Sun, Dec 10, 2017 01:00 -2.4 0.0 90.3
Sun, Dec 10, 2017 00:00 -2.5 0.0 91.0
Sat, Dec 09, 2017 23:00 -2.6 0.0 91.0
Sat, Dec 09, 2017 22:00 -2.3 0.0 89.3
Sat, Dec 09, 2017 21:00 -1.8 0.0 86.5
Sat, Dec 09, 2017 20:00 -1.2 0.0 79.8
Sat, Dec 09, 2017 19:00 -0.2 0.0 65.0
Sat, Dec 09, 2017 18:00 -0.1 0.0 61.8
Sat, Dec 09, 2017 17:00 0.2 0.0 58.8
Sat, Dec 09, 2017 16:00 1.3 0.0 54.5
Sat, Dec 09, 2017 15:00 1.5 0.0 52.5
Sat, Dec 09, 2017 14:00 1.6 0.0 53.0
Sat, Dec 09, 2017 13:00 1.3 0.0 54.0
Sat, Dec 09, 2017 12:00 1.4 0.0 52.3
Sat, Dec 09, 2017 11:00 1.5 0.0 55.3
Sat, Dec 09, 2017 10:00 0.6 0.0 64.0
Sat, Dec 09, 2017 09:00 -0.5 0.0 72.3
Sat, Dec 09, 2017 08:00 -0.1 0.0 73.8
Sat, Dec 09, 2017 07:00 -0.3 0.0 72.3
Sat, Dec 09, 2017 06:00 -0.7 0.0 59.0
Sat, Dec 09, 2017 05:00 -1.0 0.0 59.0
Sat, Dec 09, 2017 04:00 -1.1 0.0 59.0
Sat, Dec 09, 2017 03:00 -0.9 0.0 56.5


asterix Register now to access more data! asterix